Time;durP1;ratioP1;P1;durP2;ratioP2;P2;SDS_P1;SDS_P2;PMS_P1;PMS_P2;Temp;Humidity;BMP_temperature;BMP_pressure;BME280_temperature;BME280_humidity;BME280_pressure;Samples;Min_cycle;Max_cycle;Signal;HPM_P1;HPM_P2
2023/07/26 00:00:58;;;;;;;;;;;19.90;58.90;;;;;;5095946;28;19919;-67
2023/07/26 00:03:24;;;;;;;;;;;19.90;58.90;;;;;;5096342;28;19942;-67
2023/07/26 00:05:49;;;;;;;;;;;19.90;59.00;;;;;;5096273;28;19980;-67
2023/07/26 00:08:15;;;;;;;;;;;19.90;59.00;;;;;;5095838;28;19924;-67
2023/07/26 00:10:46;;;;;;;;;;;19.90;59.00;;;;;;5096052;28;20014;-67
2023/07/26 00:13:12;;;;;;;;;;;19.90;59.00;;;;;;5096125;28;20392;-67
2023/07/26 00:15:37;;;;;;;;;;;19.90;59.00;;;;;;5129818;27;19971;-68
2023/07/26 00:18:03;;;;;;;;;;;19.90;59.00;;;;;;5113958;28;20024;-67
2023/07/26 00:20:28;;;;;;;;;;;19.80;59.00;;;;;;5129758;27;19919;-67
2023/07/26 00:22:54;;;;;;;;;;;19.90;59.00;;;;;;5095836;28;19920;-68
2023/07/26 00:25:19;;;;;;;;;;;19.80;59.00;;;;;;5129715;27;19976;-67
2023/07/26 00:27:45;;;;;;;;;;;19.90;59.10;;;;;;5095407;28;19930;-67
2023/07/26 00:30:10;;;;;;;;;;;19.80;59.00;;;;;;5113707;28;19919;-67
2023/07/26 00:32:36;;;;;;;;;;;19.90;59.10;;;;;;5129452;27;19969;-67
2023/07/26 00:35:01;;;;;;;;;;;19.80;59.10;;;;;;5129530;27;20298;-67
2023/07/26 00:37:27;;;;;;;;;;;19.90;59.10;;;;;;5095404;28;19973;-68
2023/07/26 00:39:52;;;;;;;;;;;19.90;59.10;;;;;;5129762;27;19973;-67
2023/07/26 00:42:18;;;;;;;;;;;19.80;59.10;;;;;;5095483;28;20272;-67
2023/07/26 00:44:44;;;;;;;;;;;19.80;59.10;;;;;;5095487;28;19919;-67
2023/07/26 00:47:10;;;;;;;;;;;19.80;59.10;;;;;;5095147;28;20010;-67
2023/07/26 00:49:35;;;;;;;;;;;19.90;59.20;;;;;;5113462;28;19931;-67
2023/07/26 00:52:01;;;;;;;;;;;19.80;59.10;;;;;;5095456;28;19920;-67
2023/07/26 00:54:26;;;;;;;;;;;19.80;59.10;;;;;;5129444;27;20366;-67
2023/07/26 00:56:52;;;;;;;;;;;19.80;59.20;;;;;;5113116;28;19924;-67
2023/07/26 00:59:18;;;;;;;;;;;19.80;59.10;;;;;;5094606;28;19919;-67
2023/07/26 01:01:43;;;;;;;;;;;19.80;59.20;;;;;;5094963;28;20448;-67
2023/07/26 01:04:09;;;;;;;;;;;19.80;59.90;;;;;;5113150;28;20002;-67
2023/07/26 01:06:40;;;;;;;;;;;19.80;59.20;;;;;;5095278;28;19920;-71
2023/07/26 01:09:25;;;;;;;;;;;19.80;59.20;;;;;;5113110;28;20385;-67
2023/07/26 01:11:56;;;;;;;;;;;19.80;59.20;;;;;;5112967;28;19920;-67
2023/07/26 01:14:27;;;;;;;;;;;19.80;59.20;;;;;;5128942;27;19920;-67
2023/07/26 01:16:53;;;;;;;;;;;19.80;59.20;;;;;;5094848;28;19927;-67
2023/07/26 01:19:21;;;;;;;;;;;19.80;59.20;;;;;;5094271;28;21277;-67
2023/07/26 01:21:47;;;;;;;;;;;19.90;59.30;;;;;;5112274;28;19927;-67
2023/07/26 01:24:12;;;;;;;;;;;19.80;59.20;;;;;;5112702;28;19924;-67
2023/07/26 01:26:38;;;;;;;;;;;19.80;59.20;;;;;;5113102;28;19919;-68
2023/07/26 01:29:03;;;;;;;;;;;19.80;59.20;;;;;;5094899;28;19955;-71
2023/07/26 01:31:29;;;;;;;;;;;19.80;59.20;;;;;;5094620;28;19920;-67
2023/07/26 01:33:55;;;;;;;;;;;19.80;59.30;;;;;;5112854;28;19919;-67
2023/07/26 01:36:22;;;;;;;;;;;19.80;59.30;;;;;;5094664;28;19985;-67
2023/07/26 01:38:48;;;;;;;;;;;19.80;59.30;;;;;;5112673;28;20395;-67
2023/07/26 01:41:15;;;;;;;;;;;19.80;59.30;;;;;;5094765;28;20022;-67
2023/07/26 01:43:41;;;;;;;;;;;19.80;59.30;;;;;;5094812;28;19920;-67
2023/07/26 01:46:09;;;;;;;;;;;19.80;59.40;;;;;;5112972;28;20243;-67
2023/07/26 01:48:35;;;;;;;;;;;19.70;59.30;;;;;;5112747;28;19920;-67
2023/07/26 01:51:00;;;;;;;;;;;19.80;59.30;;;;;;5112643;28;19970;-67
2023/07/26 01:53:25;;;;;;;;;;;19.70;59.30;;;;;;5112597;28;19962;-68
2023/07/26 01:55:51;;;;;;;;;;;19.70;59.30;;;;;;5094250;28;20018;-70
2023/07/26 01:58:16;;;;;;;;;;;19.70;59.30;;;;;;5112478;28;19935;-67
2023/07/26 02:00:42;;;;;;;;;;;19.70;59.30;;;;;;5094645;28;19923;-67
2023/07/26 02:03:07;;;;;;;;;;;19.70;59.30;;;;;;5112595;28;19920;-67
2023/07/26 02:05:33;;;;;;;;;;;19.70;59.30;;;;;;5112464;28;19924;-67
2023/07/26 02:07:58;;;;;;;;;;;19.70;59.30;;;;;;5094231;28;20367;-71
2023/07/26 02:10:24;;;;;;;;;;;19.70;59.30;;;;;;5096817;28;20011;-68
2023/07/26 02:12:49;;;;;;;;;;;19.70;59.40;;;;;;5098198;28;19923;-67
2023/07/26 02:15:15;;;;;;;;;;;19.70;59.30;;;;;;5098008;28;19928;-67
2023/07/26 02:17:40;;;;;;;;;;;19.70;59.40;;;;;;5098164;28;19923;-68
2023/07/26 02:20:06;;;;;;;;;;;19.70;59.40;;;;;;5097939;28;19926;-67
2023/07/26 02:22:32;;;;;;;;;;;19.70;59.40;;;;;;5098337;28;19920;-67
2023/07/26 02:24:57;;;;;;;;;;;19.70;59.40;;;;;;5098164;28;19920;-67
2023/07/26 02:27:23;;;;;;;;;;;19.70;59.40;;;;;;5116057;28;19927;-68
2023/07/26 02:29:48;;;;;;;;;;;19.70;59.40;;;;;;5097868;28;20025;-67
2023/07/26 02:32:14;;;;;;;;;;;19.70;59.40;;;;;;5097510;28;19945;-67
2023/07/26 02:34:39;;;;;;;;;;;19.70;59.40;;;;;;5097874;28;19919;-67
2023/07/26 02:37:05;;;;;;;;;;;19.70;59.40;;;;;;5097561;28;20337;-67
2023/07/26 02:39:30;;;;;;;;;;;19.70;59.40;;;;;;5097961;28;19927;-68
2023/07/26 02:41:56;;;;;;;;;;;19.70;59.40;;;;;;5097573;28;19923;-67
2023/07/26 02:44:21;;;;;;;;;;;19.70;59.40;;;;;;5097894;28;20007;-67
2023/07/26 02:46:46;;;;;;;;;;;19.70;59.40;;;;;;5097745;28;19919;-67
2023/07/26 02:49:12;;;;;;;;;;;19.70;59.40;;;;;;5097588;28;19919;-67
2023/07/26 02:51:37;;;;;;;;;;;19.70;59.40;;;;;;5097430;28;19927;-67
2023/07/26 02:54:03;;;;;;;;;;;19.60;59.40;;;;;;5097358;28;19920;-67
2023/07/26 02:56:28;;;;;;;;;;;19.70;59.40;;;;;;5115449;28;19927;-68
2023/07/26 02:58:54;;;;;;;;;;;19.60;59.40;;;;;;5097533;28;20045;-67
2023/07/26 03:01:19;;;;;;;;;;;19.60;59.40;;;;;;5097575;28;20259;-67
2023/07/26 03:03:45;;;;;;;;;;;19.60;59.40;;;;;;5097223;28;20332;-67
2023/07/26 03:06:11;;;;;;;;;;;19.60;59.40;;;;;;5097154;28;19965;-67
2023/07/26 03:08:37;;;;;;;;;;;19.60;59.40;;;;;;5115311;28;19919;-67
2023/07/26 03:11:02;;;;;;;;;;;19.60;59.40;;;;;;5115303;28;20378;-67
2023/07/26 03:13:28;;;;;;;;;;;19.60;59.40;;;;;;5096947;28;19973;-67
2023/07/26 03:15:53;;;;;;;;;;;19.60;59.40;;;;;;5096776;28;19971;-67
2023/07/26 03:18:19;;;;;;;;;;;19.60;59.40;;;;;;5115165;28;19924;-67
2023/07/26 03:20:45;;;;;;;;;;;19.60;59.40;;;;;;5096363;28;19920;-67
2023/07/26 03:23:10;;;;;;;;;;;19.60;59.40;;;;;;5096785;28;19961;-67
2023/07/26 03:25:36;;;;;;;;;;;19.60;59.40;;;;;;5115067;28;19966;-67
2023/07/26 03:28:03;;;;;;;;;;;19.60;59.40;;;;;;5096587;28;20378;-67
2023/07/26 03:30:29;;;;;;;;;;;19.60;59.40;;;;;;5096648;28;19919;-67
2023/07/26 03:32:54;;;;;;;;;;;19.60;59.50;;;;;;5114992;28;19942;-67
2023/07/26 03:35:20;;;;;;;;;;;19.60;59.40;;;;;;5114819;28;19942;-67
2023/07/26 03:37:45;;;;;;;;;;;19.60;59.50;;;;;;5096440;28;20405;-67
2023/07/26 03:40:11;;;;;;;;;;;19.60;59.40;;;;;;5096763;28;19920;-67
2023/07/26 03:42:36;;;;;;;;;;;19.60;59.40;;;;;;5114676;28;19963;-68
2023/07/26 03:45:02;;;;;;;;;;;19.60;59.40;;;;;;5096486;28;19920;-67
2023/07/26 03:47:28;;;;;;;;;;;19.60;59.40;;;;;;5096316;28;19919;-67
2023/07/26 03:49:53;;;;;;;;;;;19.60;59.50;;;;;;5096605;28;19919;-67
2023/07/26 03:52:18;;;;;;;;;;;19.50;59.40;;;;;;5114511;28;19973;-67
2023/07/26 03:54:45;;;;;;;;;;;19.60;59.40;;;;;;5114790;28;20022;-67
2023/07/26 03:57:10;;;;;;;;;;;19.50;59.40;;;;;;5114313;28;19924;-67
2023/07/26 03:59:36;;;;;;;;;;;19.60;59.50;;;;;;5096204;28;20018;-67
2023/07/26 04:02:01;;;;;;;;;;;19.60;59.50;;;;;;5096102;28;19973;-67
2023/07/26 04:04:27;;;;;;;;;;;19.50;59.40;;;;;;5096189;28;19926;-67
2023/07/26 04:06:52;;;;;;;;;;;19.50;59.40;;;;;;5095979;28;19924;-67
2023/07/26 04:09:18;;;;;;;;;;;19.60;59.50;;;;;;5096119;28;20022;-67
2023/07/26 04:11:43;;;;;;;;;;;19.50;59.40;;;;;;5113456;28;20447;-67
2023/07/26 04:14:09;;;;;;;;;;;19.60;59.40;;;;;;5095836;28;19923;-67
2023/07/26 04:16:34;;;;;;;;;;;19.50;59.40;;;;;;5095935;28;19931;-67
2023/07/26 04:19:00;;;;;;;;;;;19.50;59.40;;;;;;5114004;28;20375;-67
2023/07/26 04:21:26;;;;;;;;;;;19.50;59.40;;;;;;5096071;28;19931;-67
2023/07/26 04:23:51;;;;;;;;;;;19.50;59.40;;;;;;5113861;28;19920;-67
2023/07/26 04:26:17;;;;;;;;;;;19.50;59.40;;;;;;5095876;28;19924;-71
2023/07/26 04:28:42;;;;;;;;;;;19.50;59.40;;;;;;5095862;28;19927;-67
2023/07/26 04:31:07;;;;;;;;;;;19.50;59.40;;;;;;5095441;28;20378;-67
2023/07/26 04:33:33;;;;;;;;;;;19.50;59.40;;;;;;5094493;28;19926;-68
2023/07/26 04:35:58;;;;;;;;;;;19.50;59.40;;;;;;5113631;28;19953;-68
2023/07/26 04:38:25;;;;;;;;;;;19.50;59.40;;;;;;5095411;28;19924;-67
2023/07/26 04:40:50;;;;;;;;;;;19.50;59.40;;;;;;5095637;28;19920;-67
2023/07/26 04:43:16;;;;;;;;;;;19.50;59.40;;;;;;5113662;28;19920;-67
2023/07/26 04:45:44;;;;;;;;;;;19.50;59.40;;;;;;5113395;28;19927;-67
2023/07/26 04:48:10;;;;;;;;;;;19.50;59.40;;;;;;5095170;28;19924;-67
2023/07/26 04:50:35;;;;;;;;;;;19.50;59.40;;;;;;5095366;28;19932;-67
2023/07/26 04:53:01;;;;;;;;;;;19.50;59.40;;;;;;5095152;28;20471;-67
2023/07/26 04:55:26;;;;;;;;;;;19.50;59.40;;;;;;5095293;28;19931;-67
2023/07/26 04:57:51;;;;;;;;;;;19.50;59.50;;;;;;5094969;28;20379;-67
2023/07/26 05:00:17;;;;;;;;;;;19.50;59.40;;;;;;5094906;28;20002;-67
2023/07/26 05:02:46;;;;;;;;;;;19.50;59.40;;;;;;5113194;28;20256;-67
2023/07/26 05:05:11;;;;;;;;;;;19.50;59.40;;;;;;5094994;28;19920;-67
2023/07/26 05:07:37;;;;;;;;;;;19.50;59.40;;;;;;5095223;28;20031;-67
2023/07/26 05:10:02;;;;;;;;;;;19.40;59.40;;;;;;5095192;28;19919;-67
2023/07/26 05:12:28;;;;;;;;;;;19.40;59.40;;;;;;5113000;28;20383;-67
2023/07/26 05:14:53;;;;;;;;;;;19.40;59.40;;;;;;5112868;28;19924;-67
2023/07/26 05:17:19;;;;;;;;;;;19.40;59.30;;;;;;5094542;28;19924;-71
2023/07/26 05:19:44;;;;;;;;;;;19.40;59.40;;;;;;5094762;28;19919;-67
2023/07/26 05:22:10;;;;;;;;;;;19.40;59.40;;;;;;5113021;28;20379;-71
2023/07/26 05:24:36;;;;;;;;;;;19.40;59.40;;;;;;5094701;28;19924;-67
2023/07/26 05:27:02;;;;;;;;;;;19.40;59.40;;;;;;5094899;28;20006;-67
2023/07/26 05:29:29;;;;;;;;;;;19.40;59.40;;;;;;5094938;28;20290;-67
2023/07/26 05:31:55;;;;;;;;;;;19.40;59.40;;;;;;5112768;28;20007;-67
2023/07/26 05:34:20;;;;;;;;;;;19.40;59.40;;;;;;5112750;28;19920;-67
2023/07/26 05:36:46;;;;;;;;;;;19.40;59.40;;;;;;5094714;28;20074;-68
2023/07/26 05:39:12;;;;;;;;;;;19.40;59.40;;;;;;5094537;28;20370;-67
2023/07/26 05:41:38;;;;;;;;;;;19.40;59.40;;;;;;5094744;28;19920;-67
2023/07/26 05:44:03;;;;;;;;;;;19.40;59.40;;;;;;5113048;28;19989;-67
2023/07/26 05:46:29;;;;;;;;;;;19.40;59.40;;;;;;5099027;28;19920;-68
2023/07/26 05:48:54;;;;;;;;;;;19.40;59.40;;;;;;5116819;28;19926;-67
2023/07/26 05:51:20;;;;;;;;;;;19.40;59.40;;;;;;5099011;28;19986;-67
2023/07/26 05:53:45;;;;;;;;;;;19.40;59.40;;;;;;5116963;28;19924;-67
2023/07/26 05:56:11;;;;;;;;;;;19.40;59.40;;;;;;5098755;28;19978;-68
2023/07/26 05:58:36;;;;;;;;;;;19.40;59.40;;;;;;5098692;28;20010;-67
2023/07/26 06:01:02;;;;;;;;;;;19.40;59.40;;;;;;5098917;28;19920;-71
2023/07/26 06:03:27;;;;;;;;;;;19.40;59.40;;;;;;5098297;28;19920;-67
2023/07/26 06:05:53;;;;;;;;;;;19.40;59.40;;;;;;5116850;28;20369;-67
2023/07/26 06:08:19;;;;;;;;;;;19.40;59.40;;;;;;5098190;28;19926;-68
2023/07/26 06:10:45;;;;;;;;;;;19.40;59.40;;;;;;5116674;28;19926;-67
2023/07/26 06:13:12;;;;;;;;;;;19.40;59.40;;;;;;5098602;28;20363;-67
2023/07/26 06:15:39;;;;;;;;;;;19.40;59.40;;;;;;5095127;28;20450;-67
2023/07/26 06:18:04;;;;;;;;;;;19.40;59.40;;;;;;5095590;28;20011;-67
2023/07/26 06:20:30;;;;;;;;;;;19.30;59.40;;;;;;5098017;28;20010;-67
2023/07/26 06:22:55;;;;;;;;;;;19.40;59.50;;;;;;5116442;28;19923;-67
2023/07/26 06:25:21;;;;;;;;;;;19.40;59.50;;;;;;5098259;28;20343;-68
2023/07/26 06:27:46;;;;;;;;;;;19.40;59.40;;;;;;5097996;28;19920;-68
2023/07/26 06:30:13;;;;;;;;;;;19.40;59.40;;;;;;5098107;28;19959;-68
2023/07/26 06:32:39;;;;;;;;;;;19.40;59.40;;;;;;5098287;28;19942;-67
2023/07/26 06:35:04;;;;;;;;;;;19.50;59.40;;;;;;5097907;28;20018;-68
2023/07/26 06:37:30;;;;;;;;;;;19.50;59.40;;;;;;5116064;28;19977;-68
2023/07/26 06:39:55;;;;;;;;;;;19.50;59.40;;;;;;5097643;28;19923;-67
2023/07/26 06:42:21;;;;;;;;;;;19.50;59.40;;;;;;5097593;28;19920;-68
2023/07/26 06:44:46;;;;;;;;;;;19.50;59.40;;;;;;5097731;28;19920;-67
2023/07/26 06:47:12;;;;;;;;;;;19.50;59.30;;;;;;5093778;28;19924;-68
2023/07/26 06:49:37;;;;;;;;;;;19.60;59.30;;;;;;5114355;28;19968;-67
2023/07/26 06:52:03;;;;;;;;;;;19.50;59.30;;;;;;5115427;28;19926;-68
2023/07/26 06:54:29;;;;;;;;;;;19.60;59.40;;;;;;5114673;28;20064;-68
2023/07/26 06:56:55;;;;;;;;;;;19.60;59.30;;;;;;5113225;28;19930;-67
2023/07/26 06:59:21;;;;;;;;;;;19.60;59.40;;;;;;5097265;28;19919;-68
2023/07/26 07:01:46;;;;;;;;;;;19.60;59.40;;;;;;5115366;28;19935;-68
2023/07/26 07:04:12;;;;;;;;;;;19.60;59.50;;;;;;5114416;28;19962;-68
2023/07/26 07:06:37;;;;;;;;;;;19.60;59.50;;;;;;5097325;28;20363;-68
2023/07/26 07:09:04;;;;;;;;;;;19.60;59.50;;;;;;5102057;28;20018;-68
2023/07/26 07:11:29;;;;;;;;;;;19.60;59.50;;;;;;5096012;28;20302;-68
2023/07/26 07:13:56;;;;;;;;;;;19.60;59.50;;;;;;5114469;28;19924;-68
2023/07/26 07:16:22;;;;;;;;;;;19.60;59.50;;;;;;5114757;28;20267;-68
2023/07/26 07:18:48;;;;;;;;;;;19.60;59.50;;;;;;5096656;28;19931;-68
2023/07/26 07:21:13;;;;;;;;;;;19.60;59.50;;;;;;5096902;28;19920;-72
2023/07/26 07:23:39;;;;;;;;;;;19.60;59.60;;;;;;5096786;28;20442;-68
2023/07/26 07:26:04;;;;;;;;;;;19.60;59.50;;;;;;5115126;28;19969;-68
2023/07/26 07:28:29;;;;;;;;;;;19.60;59.50;;;;;;5114942;28;19919;-68
2023/07/26 07:30:55;;;;;;;;;;;19.60;59.60;;;;;;5111751;28;19923;-68
2023/07/26 07:33:21;;;;;;;;;;;19.60;59.60;;;;;;5112997;28;20383;-68
2023/07/26 07:35:46;;;;;;;;;;;19.70;59.60;;;;;;5114729;28;19926;-68
2023/07/26 07:38:12;;;;;;;;;;;19.60;59.60;;;;;;5113510;28;20356;-68
2023/07/26 07:40:37;;;;;;;;;;;19.60;59.60;;;;;;5114900;28;19924;-69
2023/07/26 07:43:03;;;;;;;;;;;19.60;59.60;;;;;;5113533;28;19920;-69
2023/07/26 07:45:28;;;;;;;;;;;19.60;59.70;;;;;;5113263;28;19920;-68
2023/07/26 07:47:54;;;;;;;;;;;19.60;59.70;;;;;;5113313;28;19931;-69
2023/07/26 07:50:19;;;;;;;;;;;19.60;59.70;;;;;;5111950;28;19927;-75
2023/07/26 07:52:45;;;;;;;;;;;19.60;59.70;;;;;;5113680;28;19930;-69
2023/07/26 07:55:10;;;;;;;;;;;19.60;59.70;;;;;;5096234;28;19920;-69
2023/07/26 07:57:36;;;;;;;;;;;19.60;59.70;;;;;;5112823;28;19919;-69
2023/07/26 08:00:02;;;;;;;;;;;19.60;59.80;;;;;;5113404;28;20014;-69
2023/07/26 08:02:27;;;;;;;;;;;19.60;59.80;;;;;;5112882;28;19920;-75
2023/07/26 08:04:53;;;;;;;;;;;19.60;59.80;;;;;;5114221;28;19919;-75
2023/07/26 08:07:18;;;;;;;;;;;19.60;59.90;;;;;;5112803;28;19919;-69
2023/07/26 08:09:43;;;;;;;;;;;19.60;59.90;;;;;;5112502;28;19931;-76
2023/07/26 08:12:09;;;;;;;;;;;19.60;59.90;;;;;;5112217;28;19962;-69
2023/07/26 08:14:35;;;;;;;;;;;19.60;60.00;;;;;;5113713;28;19921;-69
2023/07/26 08:17:00;;;;;;;;;;;19.60;59.90;;;;;;5095511;28;20319;-69
2023/07/26 08:19:26;;;;;;;;;;;19.60;60.10;;;;;;5094744;28;19946;-69
2023/07/26 08:21:51;;;;;;;;;;;19.70;60.10;;;;;;5095196;28;19920;-68
2023/07/26 08:24:17;;;;;;;;;;;19.70;60.10;;;;;;5113154;28;19924;-74
2023/07/26 08:26:42;;;;;;;;;;;19.70;60.10;;;;;;5093186;28;20421;-75
2023/07/26 08:29:10;;;;;;;;;;;19.70;60.10;;;;;;5113894;28;20470;-68
2023/07/26 08:31:35;;;;;;;;;;;19.70;60.00;;;;;;5094747;28;20297;-76
2023/07/26 08:34:01;;;;;;;;;;;19.70;60.10;;;;;;5095595;28;19919;-75
2023/07/26 08:36:26;;;;;;;;;;;19.70;60.10;;;;;;5095392;28;19966;-68
2023/07/26 08:38:52;;;;;;;;;;;19.70;60.10;;;;;;5095623;28;19920;-68
2023/07/26 08:41:17;;;;;;;;;;;19.70;60.30;;;;;;5095208;28;20366;-68
2023/07/26 08:43:44;;;;;;;;;;;19.70;60.10;;;;;;5095278;28;19920;-68
2023/07/26 08:46:10;;;;;;;;;;;19.70;60.10;;;;;;5095479;28;19926;-68
2023/07/26 08:48:37;;;;;;;;;;;19.70;60.10;;;;;;5113456;28;19924;-68
2023/07/26 08:51:02;;;;;;;;;;;19.70;60.20;;;;;;5092663;27;20389;-68
2023/07/26 08:53:28;;;;;;;;;;;19.70;60.40;;;;;;5085748;28;19920;-67
2023/07/26 08:55:53;;;;;;;;;;;19.80;60.60;;;;;;5111197;28;19934;-71
2023/07/26 08:58:19;;;;;;;;;;;19.80;60.60;;;;;;5116529;27;20448;-73
2023/07/26 09:00:45;;;;;;;;;;;19.80;60.70;;;;;;5111768;28;20362;-67
2023/07/26 09:03:10;;;;;;;;;;;19.90;60.60;;;;;;5111105;28;19919;-66
2023/07/26 09:05:36;;;;;;;;;;;19.90;60.70;;;;;;5110029;27;19928;-67
2023/07/26 09:08:01;;;;;;;;;;;19.90;60.80;;;;;;5108426;27;19958;-67
2023/07/26 09:10:28;;;;;;;;;;;19.90;60.70;;;;;;5112357;27;19964;-71
2023/07/26 09:13:09;;;;;;;;;;;20.00;60.70;;;;;;5113234;28;20389;-70
2023/07/26 09:15:36;;;;;;;;;;;20.00;60.60;;;;;;5088468;28;19924;-72
2023/07/26 09:18:02;;;;;;;;;;;19.90;60.50;;;;;;5110106;28;19924;-67
2023/07/26 09:20:27;;;;;;;;;;;20.00;60.60;;;;;;5112105;28;19920;-67
2023/07/26 09:23:09;;;;;;;;;;;20.00;60.60;;;;;;5094004;28;20442;-68
2023/07/26 09:28:15;;;;;;;;;;;20.10;60.50;;;;;;5109480;27;19934;-71
2023/07/26 09:30:42;;;;;;;;;;;20.10;60.50;;;;;;5108651;28;19920;-66
2023/07/26 09:33:09;;;;;;;;;;;20.10;60.50;;;;;;5108442;28;20399;-71
2023/07/26 09:35:52;;;;;;;;;;;20.10;60.40;;;;;;5108428;28;19927;-72
2023/07/26 09:38:21;;;;;;;;;;;20.10;60.40;;;;;;5092203;28;19924;-65
2023/07/26 09:40:47;;;;;;;;;;;20.10;60.30;;;;;;5108112;28;19924;-66
2023/07/26 09:43:13;;;;;;;;;;;20.10;60.40;;;;;;5108484;27;19926;-66
2023/07/26 09:45:40;;;;;;;;;;;20.10;60.40;;;;;;5107951;28;20107;-66
2023/07/26 09:48:08;;;;;;;;;;;20.20;60.40;;;;;;5119383;27;19969;-69
2023/07/26 09:50:35;;;;;;;;;;;20.20;60.40;;;;;;5108867;28;19923;-64
2023/07/26 09:53:02;;;;;;;;;;;20.20;60.50;;;;;;5107087;28;19970;-64
2023/07/26 09:55:28;;;;;;;;;;;20.20;60.40;;;;;;5108984;28;19989;-70
2023/07/26 09:57:54;;;;;;;;;;;20.20;60.30;;;;;;5108351;28;20045;-63
2023/07/26 10:00:20;;;;;;;;;;;20.30;60.40;;;;;;5107892;28;20279;-63
2023/07/26 10:02:49;;;;;;;;;;;20.20;60.40;;;;;;5109340;28;19927;-64
2023/07/26 10:05:15;;;;;;;;;;;20.20;60.40;;;;;;5109332;28;19920;-62
2023/07/26 10:07:40;;;;;;;;;;;20.30;60.60;;;;;;5107875;28;19931;-64
2023/07/26 10:10:07;;;;;;;;;;;20.20;60.50;;;;;;5109668;28;19920;-64
2023/07/26 10:12:33;;;;;;;;;;;20.30;60.60;;;;;;5107822;28;19920;-63
2023/07/26 10:14:59;;;;;;;;;;;20.30;60.60;;;;;;5109436;28;19973;-64
2023/07/26 10:17:26;;;;;;;;;;;20.30;60.60;;;;;;5108794;28;20437;-64
2023/07/26 10:19:52;;;;;;;;;;;20.30;60.70;;;;;;5106844;28;19965;-64
2023/07/26 10:22:17;;;;;;;;;;;20.30;61.40;;;;;;5108263;28;19974;-63
2023/07/26 10:24:45;;;;;;;;;;;20.30;60.70;;;;;;5108612;28;19920;-62
2023/07/26 10:27:10;;;;;;;;;;;20.30;60.80;;;;;;5114974;28;19923;-63
2023/07/26 10:29:36;;;;;;;;;;;20.40;60.80;;;;;;5129233;28;19964;-62
2023/07/26 10:32:03;;;;;;;;;;;20.40;60.80;;;;;;5111110;28;19972;-63
2023/07/26 10:34:29;;;;;;;;;;;20.40;60.80;;;;;;5110686;28;19920;-63
2023/07/26 10:36:54;;;;;;;;;;;20.40;60.80;;;;;;5109360;28;19927;-63
2023/07/26 10:39:29;;;;;;;;;;;20.40;60.80;;;;;;5117156;28;20282;-65
2023/07/26 10:41:54;;;;;;;;;;;20.40;60.80;;;;;;5097623;28;19926;-64
2023/07/26 10:44:20;;;;;;;;;;;20.40;60.90;;;;;;5097578;28;19920;-64
2023/07/26 10:49:34;;;;;;;;;;;20.40;60.90;;;;;;5108024;27;19926;-65
2023/07/26 10:52:02;;;;;;;;;;;20.40;60.90;;;;;;5108399;28;19920;-67
2023/07/26 10:54:35;;;;;;;;;;;20.30;60.90;;;;;;5089074;28;19927;-65
2023/07/26 10:57:21;;;;;;;;;;;20.30;60.90;;;;;;5088390;28;19927;-65
2023/07/26 11:00:06;;;;;;;;;;;20.30;60.80;;;;;;5087807;28;20023;-65
2023/07/26 11:02:48;;;;;;;;;;;20.30;60.90;;;;;;5088525;28;19920;-64
2023/07/26 11:05:15;;;;;;;;;;;20.30;60.90;;;;;;5088240;28;19920;-65
2023/07/26 11:10:37;;;;;;;;;;;20.20;60.90;;;;;;5089755;28;19919;-65
2023/07/26 11:18:25;;;;;;;;;;;20.10;60.90;;;;;;5089676;28;19938;-73
2023/07/26 11:20:52;;;;;;;;;;;20.10;61.00;;;;;;5088936;28;19920;-66
2023/07/26 11:23:26;;;;;;;;;;;20.10;61.10;;;;;;5088275;28;19924;-73
2023/07/26 11:25:52;;;;;;;;;;;20.10;61.00;;;;;;5088718;28;19924;-66
2023/07/26 11:28:18;;;;;;;;;;;20.00;61.00;;;;;;5087734;28;19920;-66
2023/07/26 11:30:48;;;;;;;;;;;20.00;61.00;;;;;;5088711;28;19920;-72
2023/07/26 11:33:25;;;;;;;;;;;20.00;61.10;;;;;;5088630;28;19924;-66
2023/07/26 11:35:50;;;;;;;;;;;20.00;61.20;;;;;;5088327;28;19920;-66
2023/07/26 11:38:16;;;;;;;;;;;20.00;61.10;;;;;;5088297;28;19924;-66
2023/07/26 11:40:42;;;;;;;;;;;20.00;61.20;;;;;;5088386;28;19959;-73
2023/07/26 11:43:08;;;;;;;;;;;20.00;61.20;;;;;;5088292;28;19927;-73
2023/07/26 11:45:35;;;;;;;;;;;20.00;61.20;;;;;;5089319;28;19920;-66
2023/07/26 11:48:01;;;;;;;;;;;19.90;61.20;;;;;;5087309;28;19924;-66
2023/07/26 11:50:26;;;;;;;;;;;19.90;61.20;;;;;;5088329;28;20400;-71
2023/07/26 11:53:08;;;;;;;;;;;19.90;61.20;;;;;;5087907;28;19986;-66
2023/07/26 11:55:34;;;;;;;;;;;19.90;61.20;;;;;;5089093;28;20272;-66
2023/07/26 11:58:04;;;;;;;;;;;19.90;61.20;;;;;;5089103;28;19931;-66
2023/07/26 12:00:31;;;;;;;;;;;19.90;61.20;;;;;;5088029;28;19920;-66
2023/07/26 12:02:57;;;;;;;;;;;20.00;61.30;;;;;;5087996;28;19927;-65
2023/07/26 12:05:25;;;;;;;;;;;19.90;61.30;;;;;;5087642;28;19920;-65
2023/07/26 12:07:52;;;;;;;;;;;19.90;61.30;;;;;;5088711;28;19928;-66
2023/07/26 12:10:26;;;;;;;;;;;19.90;61.30;;;;;;5088938;28;19920;-65
2023/07/26 12:12:52;;;;;;;;;;;19.90;61.30;;;;;;5087955;28;19927;-65
2023/07/26 12:15:17;;;;;;;;;;;19.90;61.40;;;;;;5088058;28;20283;-65
2023/07/26 12:18:03;;;;;;;;;;;19.90;61.40;;;;;;5103263;28;19967;-65
2023/07/26 12:20:30;;;;;;;;;;;19.90;61.40;;;;;;5107162;28;19998;-72
2023/07/26 12:22:56;;;;;;;;;;;19.90;61.30;;;;;;5107836;28;19924;-65
2023/07/26 12:25:31;;;;;;;;;;;19.90;61.30;;;;;;5124609;28;19969;-66
2023/07/26 12:27:57;;;;;;;;;;;19.90;61.40;;;;;;5104892;28;19928;-73
2023/07/26 12:30:25;;;;;;;;;;;19.90;61.40;;;;;;5094182;28;19990;-65
2023/07/26 12:33:06;;;;;;;;;;;19.90;61.40;;;;;;5094012;28;19927;-65
2023/07/26 12:35:33;;;;;;;;;;;19.90;61.40;;;;;;5092599;28;19920;-65
2023/07/26 12:38:06;;;;;;;;;;;19.90;61.50;;;;;;5093698;28;19947;-65
2023/07/26 12:40:31;;;;;;;;;;;19.90;61.50;;;;;;5093724;28;19974;-65
2023/07/26 12:42:57;;;;;;;;;;;19.90;61.50;;;;;;5094094;28;19928;-65
2023/07/26 12:45:22;;;;;;;;;;;19.90;61.50;;;;;;5093926;28;19927;-65
2023/07/26 12:47:48;;;;;;;;;;;19.90;61.50;;;;;;5074868;28;20356;-65
2023/07/26 12:50:13;;;;;;;;;;;19.90;61.50;;;;;;5074743;28;20390;-65
2023/07/26 12:52:40;;;;;;;;;;;19.90;61.50;;;;;;5072027;28;20011;-65
2023/07/26 12:55:06;;;;;;;;;;;19.90;61.60;;;;;;5073188;28;19920;-65
2023/07/26 12:57:31;;;;;;;;;;;19.90;61.50;;;;;;5074621;28;19931;-65
2023/07/26 12:59:57;;;;;;;;;;;19.90;61.60;;;;;;5073726;28;20387;-65
2023/07/26 13:02:22;;;;;;;;;;;19.90;61.60;;;;;;5073287;28;19927;-65
2023/07/26 13:04:48;;;;;;;;;;;19.90;61.60;;;;;;5074222;28;20395;-65
2023/07/26 13:07:13;;;;;;;;;;;19.90;61.50;;;;;;5073968;28;19921;-64
2023/07/26 13:09:39;;;;;;;;;;;19.90;61.50;;;;;;5073620;28;19920;-65
2023/07/26 13:12:04;;;;;;;;;;;19.90;61.50;;;;;;5072588;28;19921;-65
2023/07/26 13:14:30;;;;;;;;;;;19.90;61.60;;;;;;5073607;28;20369;-65
2023/07/26 13:16:56;;;;;;;;;;;19.90;61.50;;;;;;5072261;28;19925;-65
2023/07/26 13:19:21;;;;;;;;;;;19.90;61.50;;;;;;5072764;28;19920;-65
2023/07/26 13:21:47;;;;;;;;;;;19.90;61.60;;;;;;5073983;28;20394;-65
2023/07/26 13:24:12;;;;;;;;;;;19.90;61.50;;;;;;5072893;28;19977;-66
2023/07/26 13:26:38;;;;;;;;;;;19.90;61.50;;;;;;5073642;28;19921;-66
2023/07/26 13:29:03;;;;;;;;;;;19.90;61.50;;;;;;5072790;28;20019;-66
2023/07/26 13:31:29;;;;;;;;;;;19.90;61.50;;;;;;5072992;28;20338;-66
2023/07/26 13:33:55;;;;;;;;;;;19.90;61.50;;;;;;5071339;28;19931;-65
2023/07/26 13:36:21;;;;;;;;;;;19.90;61.60;;;;;;5073558;28;20451;-66
2023/07/26 13:38:47;;;;;;;;;;;19.90;61.60;;;;;;5072752;28;19931;-65
2023/07/26 13:41:12;;;;;;;;;;;19.90;61.60;;;;;;5073135;28;20367;-66
2023/07/26 13:43:38;;;;;;;;;;;19.90;61.60;;;;;;5072470;28;19928;-66
2023/07/26 13:46:03;;;;;;;;;;;19.90;61.60;;;;;;5072329;28;20058;-66
2023/07/26 13:48:29;;;;;;;;;;;19.90;61.60;;;;;;5072516;28;19921;-66
2023/07/26 13:50:54;;;;;;;;;;;19.90;61.60;;;;;;5072591;28;19928;-66
2023/07/26 13:53:20;;;;;;;;;;;19.90;61.70;;;;;;5072422;28;20015;-66
2023/07/26 13:55:45;;;;;;;;;;;19.90;61.70;;;;;;5071687;28;20379;-66
2023/07/26 13:58:11;;;;;;;;;;;19.90;61.70;;;;;;5069955;28;19933;-68
2023/07/26 14:00:36;;;;;;;;;;;19.90;61.70;;;;;;5064957;28;19978;-65
2023/07/26 14:03:03;;;;;;;;;;;19.90;61.70;;;;;;5067967;28;19927;-66
2023/07/26 14:05:29;;;;;;;;;;;19.90;61.70;;;;;;5052953;28;19921;-66
2023/07/26 14:07:54;;;;;;;;;;;19.90;61.70;;;;;;5052957;28;19920;-71
2023/07/26 14:10:20;;;;;;;;;;;19.90;61.80;;;;;;5069109;28;19921;-66
2023/07/26 14:12:45;;;;;;;;;;;19.90;61.80;;;;;;5069583;28;19992;-66
2023/07/26 14:15:11;;;;;;;;;;;19.90;61.80;;;;;;5067528;28;20376;-66
2023/07/26 14:17:36;;;;;;;;;;;19.90;61.80;;;;;;5067102;28;20360;-66
2023/07/26 14:20:02;;;;;;;;;;;19.90;61.80;;;;;;5071904;28;19928;-66
2023/07/26 14:22:27;;;;;;;;;;;19.90;61.90;;;;;;5063588;28;20294;-66
2023/07/26 14:24:53;;;;;;;;;;;19.90;61.80;;;;;;5092926;28;19965;-66